Aquinnah, Massachusetts
Current Conditions -  °F | °C
As of 9:53 AM on Thursday 23 Oct 2014 (Local Time) from KMVY Reporting Station
Overcast Overcast  
Wind Chill: 58°   Ceiling: 8500
Heat Index: 58°   Visibility: 10mi
Dew Point: 55°   Wind: 14mph
Humidity: 90%   Direction: 350°N
Pressure: 29.54"   Gusts: NA
Location:  41.3536°N, 70.7417°W
Report Text: KMVY 231353Z 35012KT 10SM SCT009 OVC085 14/13 A2954 RMK AO2 SLP004 T01440128
Loading
Personal Weather Stations






























Interactive Weather Map New forecast layout! Learn more

10-Day Weather Forecast

Advertisements
Track Severe Weather on mobile